KMNM

Menominee-Marinette Twin County Airport

Menominee, Michigan, USA
METAR KMNM 141256Z AUTO 28004KT 10SM CLR 22/18 A2994 RMK AO2 SLP150 T02170178 $
Observed Flight Rules
Aug-14 @ 12:56 UTC (46 minutes ago) Visual Flight Rules
Wind Visibility Clouds
280° at 4 knots 10 miles
  • Clear skies
Temperatures Readings
Current 22°C / 72°F
Dewpoint 18°C / 64°F
Humidity 78%
Altimeter 29.94" Hg
Pressure 1015 hPa
Elevation 191
METAR KMNM 141256Z AUTO 28004KT 10SM CLR 22/18 A2994 RMK AO2 SLP150 T02170178 $
Observed Flight Rules
Aug-14 @ 12:56 UTC
(46 minutes ago)
VFR
Wind Visibility
280° at 4 knots 10 miles
Clouds
  • Clear skies
Temperature Dewpoint
22°C / 72°F 18°C / 64°F
Humidity Altimeter Pressure
78% 29.94" Hg 1015 hPa